sensor_id;sensor_type;location;lat;lon;timestamp;P1;durP1;ratioP1;P2;durP2;ratioP2
17496;SDS011;62150;43.582;1.456;2024-01-11T04:38:38;16.40;;;8.10;;
17496;SDS011;62150;43.582;1.456;2024-01-11T04:41:07;16.93;;;7.90;;
17496;SDS011;62150;43.582;1.456;2024-01-11T04:43:35;16.00;;;7.80;;
17496;SDS011;62150;43.582;1.456;2024-01-11T04:46:03;16.50;;;8.10;;
17496;SDS011;62150;43.582;1.456;2024-01-11T04:48:38;17.27;;;8.63;;
17496;SDS011;62150;43.582;1.456;2024-01-11T04:51:06;16.17;;;7.63;;
17496;SDS011;62150;43.582;1.456;2024-01-11T04:53:35;16.80;;;8.60;;
17496;SDS011;62150;43.582;1.456;2024-01-11T04:56:05;17.50;;;8.10;;
17496;SDS011;62150;43.582;1.456;2024-01-11T04:58:34;17.83;;;7.80;;
17496;SDS011;62150;43.582;1.456;2024-01-11T05:01:03;15.50;;;7.90;;
17496;SDS011;62150;43.582;1.456;2024-01-11T05:03:31;16.40;;;8.07;;
17496;SDS011;62150;43.582;1.456;2024-01-11T05:05:59;16.87;;;8.57;;
17496;SDS011;62150;43.582;1.456;2024-01-11T05:08:26;14.50;;;7.57;;
17496;SDS011;62150;43.582;1.456;2024-01-11T05:10:55;14.73;;;7.50;;
17496;SDS011;62150;43.582;1.456;2024-01-11T05:13:23;15.10;;;7.73;;
17496;SDS011;62150;43.582;1.456;2024-01-11T05:15:50;15.17;;;7.77;;
17496;SDS011;62150;43.582;1.456;2024-01-11T05:18:18;14.67;;;7.27;;
17496;SDS011;62150;43.582;1.456;2024-01-11T05:20:45;17.20;;;7.67;;
17496;SDS011;62150;43.582;1.456;2024-01-11T05:23:13;15.97;;;7.80;;
17496;SDS011;62150;43.582;1.456;2024-01-11T05:25:40;15.00;;;7.50;;
17496;SDS011;62150;43.582;1.456;2024-01-11T05:28:09;15.43;;;7.37;;
17496;SDS011;62150;43.582;1.456;2024-01-11T05:30:37;16.37;;;7.67;;
17496;SDS011;62150;43.582;1.456;2024-01-11T05:33:04;14.50;;;7.37;;
17496;SDS011;62150;43.582;1.456;2024-01-11T05:35:32;14.80;;;7.63;;
17496;SDS011;62150;43.582;1.456;2024-01-11T05:37:59;15.83;;;8.30;;
17496;SDS011;62150;43.582;1.456;2024-01-11T05:40:27;15.77;;;7.13;;
17496;SDS011;62150;43.582;1.456;2024-01-11T05:42:54;14.53;;;7.53;;
17496;SDS011;62150;43.582;1.456;2024-01-11T05:45:23;16.63;;;7.87;;
17496;SDS011;62150;43.582;1.456;2024-01-11T05:47:50;14.13;;;7.40;;
17496;SDS011;62150;43.582;1.456;2024-01-11T05:50:18;15.33;;;7.70;;
17496;SDS011;62150;43.582;1.456;2024-01-11T05:52:46;14.00;;;6.83;;
17496;SDS011;62150;43.582;1.456;2024-01-11T05:55:13;14.57;;;7.07;;
17496;SDS011;62150;43.582;1.456;2024-01-11T05:57:41;15.43;;;7.30;;
17496;SDS011;62150;43.582;1.456;2024-01-11T06:00:09;13.97;;;6.77;;
17496;SDS011;62150;43.582;1.456;2024-01-11T06:02:38;14.83;;;7.13;;
17496;SDS011;62150;43.582;1.456;2024-01-11T06:05:07;14.20;;;7.47;;
17496;SDS011;62150;43.582;1.456;2024-01-11T06:07:35;14.27;;;7.17;;
17496;SDS011;62150;43.582;1.456;2024-01-11T06:10:02;14.97;;;7.57;;
17496;SDS011;62150;43.582;1.456;2024-01-11T06:12:31;14.07;;;6.70;;
17496;SDS011;62150;43.582;1.456;2024-01-11T06:14:58;14.40;;;7.23;;
17496;SDS011;62150;43.582;1.456;2024-01-11T06:17:27;15.23;;;7.73;;
17496;SDS011;62150;43.582;1.456;2024-01-11T06:19:55;15.70;;;7.80;;
17496;SDS011;62150;43.582;1.456;2024-01-11T06:22:23;13.53;;;6.83;;
17496;SDS011;62150;43.582;1.456;2024-01-11T06:24:50;13.97;;;6.93;;
17496;SDS011;62150;43.582;1.456;2024-01-11T06:27:18;13.70;;;6.77;;
17496;SDS011;62150;43.582;1.456;2024-01-11T06:29:45;13.90;;;7.00;;
17496;SDS011;62150;43.582;1.456;2024-01-11T06:32:13;15.53;;;7.87;;
17496;SDS011;62150;43.582;1.456;2024-01-11T06:34:40;14.27;;;7.17;;
17496;SDS011;62150;43.582;1.456;2024-01-11T06:37:12;13.37;;;6.83;;
17496;SDS011;62150;43.582;1.456;2024-01-11T06:39:39;15.23;;;7.37;;
17496;SDS011;62150;43.582;1.456;2024-01-11T06:42:08;14.47;;;7.40;;
17496;SDS011;62150;43.582;1.456;2024-01-11T06:44:35;15.17;;;7.43;;
17496;SDS011;62150;43.582;1.456;2024-01-11T06:47:03;14.87;;;7.43;;
17496;SDS011;62150;43.582;1.456;2024-01-11T06:49:30;13.77;;;7.23;;
17496;SDS011;62150;43.582;1.456;2024-01-11T06:51:58;15.07;;;7.20;;
17496;SDS011;62150;43.582;1.456;2024-01-11T06:54:27;14.97;;;7.27;;
17496;SDS011;62150;43.582;1.456;2024-01-11T06:56:55;14.10;;;6.90;;
17496;SDS011;62150;43.582;1.456;2024-01-11T06:59:23;15.73;;;7.40;;
17496;SDS011;62150;43.582;1.456;2024-01-11T07:01:50;13.97;;;7.07;;
17496;SDS011;62150;43.582;1.456;2024-01-11T07:04:18;13.17;;;6.83;;
17496;SDS011;62150;43.582;1.456;2024-01-11T07:06:45;13.07;;;6.87;;
17496;SDS011;62150;43.582;1.456;2024-01-11T07:09:13;12.83;;;6.90;;
17496;SDS011;62150;43.582;1.456;2024-01-11T07:11:43;14.90;;;7.33;;
17496;SDS011;62150;43.582;1.456;2024-01-11T07:14:11;13.73;;;6.80;;
17496;SDS011;62150;43.582;1.456;2024-01-11T07:16:38;12.47;;;6.57;;
17496;SDS011;62150;43.582;1.456;2024-01-11T07:19:06;12.57;;;6.43;;
17496;SDS011;62150;43.582;1.456;2024-01-11T07:21:33;13.00;;;6.67;;
17496;SDS011;62150;43.582;1.456;2024-01-11T07:24:01;13.27;;;6.67;;
17496;SDS011;62150;43.582;1.456;2024-01-11T07:26:29;14.53;;;6.30;;
17496;SDS011;62150;43.582;1.456;2024-01-11T07:28:58;13.90;;;6.67;;
17496;SDS011;62150;43.582;1.456;2024-01-11T07:31:26;12.60;;;6.23;;
17496;SDS011;62150;43.582;1.456;2024-01-11T07:33:54;14.53;;;6.90;;
17496;SDS011;62150;43.582;1.456;2024-01-11T07:36:22;15.40;;;6.90;;
17496;SDS011;62150;43.582;1.456;2024-01-11T07:38:50;15.57;;;7.07;;
17496;SDS011;62150;43.582;1.456;2024-01-11T07:41:17;15.60;;;7.30;;
17496;SDS011;62150;43.582;1.456;2024-01-11T07:43:45;16.80;;;7.57;;
17496;SDS011;62150;43.582;1.456;2024-01-11T07:46:14;15.37;;;7.87;;
17496;SDS011;62150;43.582;1.456;2024-01-11T07:48:42;13.83;;;7.17;;
17496;SDS011;62150;43.582;1.456;2024-01-11T07:51:10;13.40;;;6.33;;
17496;SDS011;62150;43.582;1.456;2024-01-11T07:53:37;13.23;;;6.33;;
17496;SDS011;62150;43.582;1.456;2024-01-11T07:56:06;12.70;;;6.53;;
17496;SDS011;62150;43.582;1.456;2024-01-11T07:58:33;14.30;;;6.70;;
17496;SDS011;62150;43.582;1.456;2024-01-11T08:01:02;14.77;;;6.77;;
17496;SDS011;62150;43.582;1.456;2024-01-11T08:03:31;13.60;;;6.63;;
17496;SDS011;62150;43.582;1.456;2024-01-11T08:05:59;13.97;;;6.93;;
17496;SDS011;62150;43.582;1.456;2024-01-11T08:08:27;12.80;;;6.10;;
17496;SDS011;62150;43.582;1.456;2024-01-11T08:10:55;13.37;;;6.80;;
17496;SDS011;62150;43.582;1.456;2024-01-11T08:13:22;14.27;;;7.37;;
17496;SDS011;62150;43.582;1.456;2024-01-11T08:15:50;13.50;;;6.90;;
17496;SDS011;62150;43.582;1.456;2024-01-11T08:18:18;15.30;;;7.07;;
17496;SDS011;62150;43.582;1.456;2024-01-11T08:20:47;13.93;;;6.80;;
17496;SDS011;62150;43.582;1.456;2024-01-11T08:23:15;13.93;;;6.83;;
17496;SDS011;62150;43.582;1.456;2024-01-11T08:25:42;13.80;;;6.60;;
17496;SDS011;62150;43.582;1.456;2024-01-11T08:28:10;14.67;;;7.20;;
17496;SDS011;62150;43.582;1.456;2024-01-11T08:30:38;14.67;;;6.90;;
17496;SDS011;62150;43.582;1.456;2024-01-11T08:33:07;13.93;;;6.50;;
17496;SDS011;62150;43.582;1.456;2024-01-11T08:35:35;13.73;;;6.67;;
17496;SDS011;62150;43.582;1.456;2024-01-11T08:38:06;13.40;;;6.50;;
17496;SDS011;62150;43.582;1.456;2024-01-11T08:40:33;13.83;;;6.77;;
17496;SDS011;62150;43.582;1.456;2024-01-11T08:43:01;14.43;;;6.93;;
17496;SDS011;62150;43.582;1.456;2024-01-11T08:45:29;13.40;;;7.00;;
17496;SDS011;62150;43.582;1.456;2024-01-11T08:47:56;14.33;;;7.03;;
17496;SDS011;62150;43.582;1.456;2024-01-11T08:50:24;13.37;;;7.03;;
17496;SDS011;62150;43.582;1.456;2024-01-11T08:52:51;14.17;;;7.10;;
17496;SDS011;62150;43.582;1.456;2024-01-11T08:55:21;14.33;;;7.00;;
17496;SDS011;62150;43.582;1.456;2024-01-11T08:57:49;13.83;;;6.93;;
17496;SDS011;62150;43.582;1.456;2024-01-11T09:00:16;15.10;;;7.33;;
17496;SDS011;62150;43.582;1.456;2024-01-11T09:02:44;13.60;;;6.73;;
17496;SDS011;62150;43.582;1.456;2024-01-11T09:05:13;14.10;;;7.20;;
17496;SDS011;62150;43.582;1.456;2024-01-11T09:07:41;14.07;;;6.83;;
17496;SDS011;62150;43.582;1.456;2024-01-11T09:10:09;15.40;;;7.63;;
17496;SDS011;62150;43.582;1.456;2024-01-11T09:12:38;14.07;;;6.73;;
17496;SDS011;62150;43.582;1.456;2024-01-11T09:15:06;14.10;;;6.93;;
17496;SDS011;62150;43.582;1.456;2024-01-11T09:17:35;13.50;;;6.97;;
17496;SDS011;62150;43.582;1.456;2024-01-11T09:20:04;13.60;;;7.10;;
17496;SDS011;62150;43.582;1.456;2024-01-11T09:22:31;16.20;;;7.10;;
17496;SDS011;62150;43.582;1.456;2024-01-11T09:24:59;15.23;;;7.30;;
17496;SDS011;62150;43.582;1.456;2024-01-11T09:27:26;14.07;;;7.33;;
17496;SDS011;62150;43.582;1.456;2024-01-11T09:29:55;14.00;;;7.10;;
17496;SDS011;62150;43.582;1.456;2024-01-11T09:32:24;14.67;;;7.67;;
17496;SDS011;62150;43.582;1.456;2024-01-11T09:34:51;15.23;;;7.70;;
17496;SDS011;62150;43.582;1.456;2024-01-11T09:37:19;14.73;;;7.23;;
17496;SDS011;62150;43.582;1.456;2024-01-11T09:39:46;15.03;;;7.33;;
17496;SDS011;62150;43.582;1.456;2024-01-11T09:42:14;13.57;;;6.77;;
17496;SDS011;62150;43.582;1.456;2024-01-11T09:44:42;13.90;;;7.07;;
17496;SDS011;62150;43.582;1.456;2024-01-11T09:47:11;14.10;;;6.63;;
17496;SDS011;62150;43.582;1.456;2024-01-11T09:49:41;13.67;;;7.03;;
17496;SDS011;62150;43.582;1.456;2024-01-11T09:52:11;14.63;;;7.03;;
17496;SDS011;62150;43.582;1.456;2024-01-11T09:54:39;13.97;;;6.53;;
17496;SDS011;62150;43.582;1.456;2024-01-11T09:57:07;14.17;;;6.57;;
17496;SDS011;62150;43.582;1.456;2024-01-11T09:59:36;14.40;;;6.50;;
17496;SDS011;62150;43.582;1.456;2024-01-11T10:02:04;13.27;;;6.63;;
17496;SDS011;62150;43.582;1.456;2024-01-11T10:04:36;14.33;;;7.00;;
17496;SDS011;62150;43.582;1.456;2024-01-11T10:07:03;14.07;;;7.00;;
17496;SDS011;62150;43.582;1.456;2024-01-11T10:09:32;13.73;;;6.93;;
17496;SDS011;62150;43.582;1.456;2024-01-11T10:12:00;14.23;;;7.20;;
17496;SDS011;62150;43.582;1.456;2024-01-11T10:14:28;13.50;;;6.50;;
17496;SDS011;62150;43.582;1.456;2024-01-11T10:16:57;14.10;;;6.87;;
17496;SDS011;62150;43.582;1.456;2024-01-11T10:19:25;14.43;;;7.17;;
17496;SDS011;62150;43.582;1.456;2024-01-11T10:21:54;13.40;;;6.60;;
17496;SDS011;62150;43.582;1.456;2024-01-11T10:24:21;13.90;;;6.80;;
17496;SDS011;62150;43.582;1.456;2024-01-11T10:26:51;13.83;;;6.80;;
17496;SDS011;62150;43.582;1.456;2024-01-11T10:29:21;15.63;;;7.57;;
17496;SDS011;62150;43.582;1.456;2024-01-11T10:31:49;14.10;;;7.00;;
17496;SDS011;62150;43.582;1.456;2024-01-11T10:34:16;14.03;;;7.07;;
17496;SDS011;62150;43.582;1.456;2024-01-11T10:36:45;14.77;;;7.43;;
17496;SDS011;62150;43.582;1.456;2024-01-11T10:39:14;14.93;;;7.40;;
17496;SDS011;62150;43.582;1.456;2024-01-11T10:41:46;14.40;;;7.30;;
17496;SDS011;62150;43.582;1.456;2024-01-11T10:44:18;15.37;;;7.53;;
17496;SDS011;62150;43.582;1.456;2024-01-11T10:46:47;14.63;;;7.00;;
17496;SDS011;62150;43.582;1.456;2024-01-11T10:49:16;15.20;;;7.63;;
17496;SDS011;62150;43.582;1.456;2024-01-11T10:51:47;15.13;;;7.27;;
17496;SDS011;62150;43.582;1.456;2024-01-11T10:54:21;15.13;;;7.73;;
17496;SDS011;62150;43.582;1.456;2024-01-11T10:56:49;15.47;;;7.67;;
17496;SDS011;62150;43.582;1.456;2024-01-11T10:59:17;15.57;;;7.93;;
17496;SDS011;62150;43.582;1.456;2024-01-11T11:01:50;14.83;;;7.67;;
17496;SDS011;62150;43.582;1.456;2024-01-11T11:04:20;14.43;;;7.07;;
17496;SDS011;62150;43.582;1.456;2024-01-11T11:06:50;13.60;;;7.00;;
17496;SDS011;62150;43.582;1.456;2024-01-11T11:09:23;14.30;;;7.27;;
17496;SDS011;62150;43.582;1.456;2024-01-11T11:11:53;15.10;;;7.60;;
17496;SDS011;62150;43.582;1.456;2024-01-11T11:14:24;14.43;;;7.03;;
17496;SDS011;62150;43.582;1.456;2024-01-11T11:16:52;12.90;;;6.70;;
17496;SDS011;62150;43.582;1.456;2024-01-11T11:19:20;14.33;;;7.20;;
17496;SDS011;62150;43.582;1.456;2024-01-11T11:21:48;16.00;;;7.83;;
17496;SDS011;62150;43.582;1.456;2024-01-11T11:24:16;16.00;;;7.67;;
17496;SDS011;62150;43.582;1.456;2024-01-11T11:26:45;14.20;;;7.73;;
17496;SDS011;62150;43.582;1.456;2024-01-11T11:29:12;16.37;;;8.40;;
17496;SDS011;62150;43.582;1.456;2024-01-11T11:31:43;16.77;;;7.90;;
17496;SDS011;62150;43.582;1.456;2024-01-11T11:34:12;14.57;;;7.33;;
17496;SDS011;62150;43.582;1.456;2024-01-11T11:36:40;15.80;;;8.03;;
17496;SDS011;62150;43.582;1.456;2024-01-11T11:39:13;16.27;;;7.87;;
17496;SDS011;62150;43.582;1.456;2024-01-11T11:41:41;14.87;;;7.77;;
17496;SDS011;62150;43.582;1.456;2024-01-11T11:44:12;14.70;;;7.67;;
17496;SDS011;62150;43.582;1.456;2024-01-11T11:46:40;15.70;;;7.63;;
17496;SDS011;62150;43.582;1.456;2024-01-11T11:49:09;15.93;;;7.37;;
17496;SDS011;62150;43.582;1.456;2024-01-11T11:51:39;14.13;;;7.33;;
17496;SDS011;62150;43.582;1.456;2024-01-11T11:54:07;14.70;;;7.43;;
17496;SDS011;62150;43.582;1.456;2024-01-11T11:56:36;14.23;;;7.23;;
17496;SDS011;62150;43.582;1.456;2024-01-11T11:59:04;17.93;;;8.83;;
17496;SDS011;62150;43.582;1.456;2024-01-11T12:01:34;14.80;;;7.97;;
17496;SDS011;62150;43.582;1.456;2024-01-11T12:04:04;15.97;;;8.03;;
17496;SDS011;62150;43.582;1.456;2024-01-11T12:06:34;14.27;;;6.93;;
17496;SDS011;62150;43.582;1.456;2024-01-11T12:09:01;15.83;;;7.87;;
17496;SDS011;62150;43.582;1.456;2024-01-11T12:11:29;16.40;;;8.30;;
17496;SDS011;62150;43.582;1.456;2024-01-11T12:13:58;16.47;;;8.13;;
17496;SDS011;62150;43.582;1.456;2024-01-11T12:16:25;15.23;;;7.80;;
17496;SDS011;62150;43.582;1.456;2024-01-11T12:18:55;16.07;;;8.00;;
17496;SDS011;62150;43.582;1.456;2024-01-11T12:21:22;15.77;;;7.77;;
17496;SDS011;62150;43.582;1.456;2024-01-11T12:23:51;14.33;;;7.57;;
17496;SDS011;62150;43.582;1.456;2024-01-11T12:26:18;15.60;;;7.93;;
17496;SDS011;62150;43.582;1.456;2024-01-11T12:28:47;17.13;;;9.07;;
17496;SDS011;62150;43.582;1.456;2024-01-11T12:31:15;16.83;;;8.67;;
17496;SDS011;62150;43.582;1.456;2024-01-11T12:33:44;15.90;;;8.50;;
17496;SDS011;62150;43.582;1.456;2024-01-11T12:36:14;16.50;;;8.30;;
17496;SDS011;62150;43.582;1.456;2024-01-11T12:38:46;16.53;;;7.60;;
17496;SDS011;62150;43.582;1.456;2024-01-11T12:41:14;16.33;;;7.97;;
17496;SDS011;62150;43.582;1.456;2024-01-11T12:43:42;17.10;;;8.53;;
17496;SDS011;62150;43.582;1.456;2024-01-11T12:46:10;15.20;;;7.60;;
17496;SDS011;62150;43.582;1.456;2024-01-11T12:48:37;13.60;;;7.23;;
17496;SDS011;62150;43.582;1.456;2024-01-11T12:51:05;16.47;;;7.57;;
17496;SDS011;62150;43.582;1.456;2024-01-11T12:53:35;14.30;;;7.33;;
17496;SDS011;62150;43.582;1.456;2024-01-11T12:56:04;14.47;;;7.57;;
17496;SDS011;62150;43.582;1.456;2024-01-11T12:58:35;15.57;;;7.87;;
17496;SDS011;62150;43.582;1.456;2024-01-11T13:01:03;14.00;;;7.30;;
17496;SDS011;62150;43.582;1.456;2024-01-11T13:03:32;14.37;;;7.20;;
17496;SDS011;62150;43.582;1.456;2024-01-11T13:06:01;15.13;;;7.57;;
17496;SDS011;62150;43.582;1.456;2024-01-11T13:08:29;16.43;;;8.27;;
17496;SDS011;62150;43.582;1.456;2024-01-11T13:10:58;18.50;;;9.03;;
17496;SDS011;62150;43.582;1.456;2024-01-11T13:13:30;14.57;;;7.27;;
17496;SDS011;62150;43.582;1.456;2024-01-11T13:15:57;15.47;;;7.70;;
17496;SDS011;62150;43.582;1.456;2024-01-11T13:18:25;17.37;;;7.70;;
17496;SDS011;62150;43.582;1.456;2024-01-11T13:20:52;17.10;;;8.57;;
17496;SDS011;62150;43.582;1.456;2024-01-11T13:23:20;13.23;;;7.20;;
17496;SDS011;62150;43.582;1.456;2024-01-11T13:25:49;15.00;;;7.60;;
17496;SDS011;62150;43.582;1.456;2024-01-11T13:28:18;16.30;;;8.03;;
17496;SDS011;62150;43.582;1.456;2024-01-11T13:30:46;16.20;;;7.87;;
17496;SDS011;62150;43.582;1.456;2024-01-11T13:33:14;14.80;;;7.27;;
17496;SDS011;62150;43.582;1.456;2024-01-11T13:35:42;15.17;;;7.87;;
17496;SDS011;62150;43.582;1.456;2024-01-11T13:38:10;15.03;;;7.53;;
17496;SDS011;62150;43.582;1.456;2024-01-11T13:40:38;15.63;;;7.87;;
17496;SDS011;62150;43.582;1.456;2024-01-11T13:43:05;15.53;;;7.67;;
17496;SDS011;62150;43.582;1.456;2024-01-11T13:45:34;14.30;;;7.33;;
17496;SDS011;62150;43.582;1.456;2024-01-11T13:48:02;16.30;;;8.17;;
17496;SDS011;62150;43.582;1.456;2024-01-11T13:50:31;16.10;;;7.97;;
17496;SDS011;62150;43.582;1.456;2024-01-11T13:52:58;15.20;;;7.33;;
17496;SDS011;62150;43.582;1.456;2024-01-11T13:55:27;15.57;;;8.07;;
17496;SDS011;62150;43.582;1.456;2024-01-11T13:58:02;15.47;;;7.70;;
17496;SDS011;62150;43.582;1.456;2024-01-11T14:00:30;14.17;;;7.43;;
17496;SDS011;62150;43.582;1.456;2024-01-11T14:02:59;14.73;;;7.37;;
17496;SDS011;62150;43.582;1.456;2024-01-11T14:05:28;14.83;;;7.50;;
17496;SDS011;62150;43.582;1.456;2024-01-11T14:07:56;13.90;;;7.23;;
17496;SDS011;62150;43.582;1.456;2024-01-11T14:10:27;13.80;;;7.13;;
17496;SDS011;62150;43.582;1.456;2024-01-11T14:12:55;14.67;;;7.50;;
17496;SDS011;62150;43.582;1.456;2024-01-11T14:15:26;15.17;;;7.57;;
17496;SDS011;62150;43.582;1.456;2024-01-11T14:17:56;15.13;;;6.97;;
17496;SDS011;62150;43.582;1.456;2024-01-11T14:20:25;13.97;;;6.83;;
17496;SDS011;62150;43.582;1.456;2024-01-11T14:22:52;14.23;;;7.17;;
17496;SDS011;62150;43.582;1.456;2024-01-11T14:25:20;14.57;;;7.47;;
17496;SDS011;62150;43.582;1.456;2024-01-11T14:27:49;14.93;;;7.33;;
17496;SDS011;62150;43.582;1.456;2024-01-11T14:30:17;15.93;;;7.87;;
17496;SDS011;62150;43.582;1.456;2024-01-11T14:32:47;13.93;;;6.67;;
17496;SDS011;62150;43.582;1.456;2024-01-11T14:35:14;14.27;;;7.20;;
17496;SDS011;62150;43.582;1.456;2024-01-11T14:37:44;13.97;;;6.87;;
17496;SDS011;62150;43.582;1.456;2024-01-11T14:40:12;14.27;;;7.03;;
17496;SDS011;62150;43.582;1.456;2024-01-11T14:42:39;13.97;;;7.13;;
17496;SDS011;62150;43.582;1.456;2024-01-11T14:45:10;12.97;;;6.73;;
17496;SDS011;62150;43.582;1.456;2024-01-11T14:47:38;16.13;;;7.60;;
17496;SDS011;62150;43.582;1.456;2024-01-11T14:50:06;15.07;;;6.90;;
17496;SDS011;62150;43.582;1.456;2024-01-11T14:52:35;14.23;;;6.83;;
17496;SDS011;62150;43.582;1.456;2024-01-11T14:55:05;14.47;;;7.20;;
17496;SDS011;62150;43.582;1.456;2024-01-11T14:57:34;15.43;;;7.07;;
17496;SDS011;62150;43.582;1.456;2024-01-11T15:00:02;14.63;;;6.87;;
17496;SDS011;62150;43.582;1.456;2024-01-11T15:02:32;15.87;;;7.40;;
17496;SDS011;62150;43.582;1.456;2024-01-11T15:05:00;14.67;;;7.53;;
17496;SDS011;62150;43.582;1.456;2024-01-11T15:07:28;14.90;;;7.50;;
17496;SDS011;62150;43.582;1.456;2024-01-11T15:09:56;13.07;;;6.33;;
17496;SDS011;62150;43.582;1.456;2024-01-11T15:12:25;13.53;;;7.23;;
17496;SDS011;62150;43.582;1.456;2024-01-11T15:14:52;14.27;;;7.40;;
17496;SDS011;62150;43.582;1.456;2024-01-11T15:17:20;15.03;;;7.33;;
17496;SDS011;62150;43.582;1.456;2024-01-11T15:19:47;14.30;;;7.03;;
17496;SDS011;62150;43.582;1.456;2024-01-11T15:22:15;15.47;;;7.97;;
17496;SDS011;62150;43.582;1.456;2024-01-11T15:24:42;15.97;;;7.27;;
17496;SDS011;62150;43.582;1.456;2024-01-11T15:27:17;15.50;;;7.20;;
17496;SDS011;62150;43.582;1.456;2024-01-11T15:29:47;15.90;;;7.70;;
17496;SDS011;62150;43.582;1.456;2024-01-11T15:32:15;15.20;;;7.30;;
17496;SDS011;62150;43.582;1.456;2024-01-11T15:34:43;14.73;;;7.17;;
17496;SDS011;62150;43.582;1.456;2024-01-11T15:37:11;14.93;;;7.63;;
17496;SDS011;62150;43.582;1.456;2024-01-11T15:39:38;14.17;;;7.43;;
17496;SDS011;62150;43.582;1.456;2024-01-11T15:42:06;14.37;;;6.80;;
17496;SDS011;62150;43.582;1.456;2024-01-11T15:44:33;14.27;;;7.20;;
17496;SDS011;62150;43.582;1.456;2024-01-11T15:47:05;15.00;;;7.47;;
17496;SDS011;62150;43.582;1.456;2024-01-11T15:49:35;16.37;;;7.50;;
17496;SDS011;62150;43.582;1.456;2024-01-11T15:52:03;15.33;;;7.80;;
17496;SDS011;62150;43.582;1.456;2024-01-11T15:54:31;14.53;;;6.97;;
17496;SDS011;62150;43.582;1.456;2024-01-11T15:56:58;14.37;;;7.00;;
17496;SDS011;62150;43.582;1.456;2024-01-11T15:59:26;15.70;;;7.67;;
17496;SDS011;62150;43.582;1.456;2024-01-11T16:01:54;14.73;;;7.30;;
17496;SDS011;62150;43.582;1.456;2024-01-11T16:04:23;15.50;;;7.90;;
17496;SDS011;62150;43.582;1.456;2024-01-11T16:06:51;16.07;;;8.43;;
17496;SDS011;62150;43.582;1.456;2024-01-11T16:09:19;15.43;;;8.10;;
17496;SDS011;62150;43.582;1.456;2024-01-11T16:11:47;15.40;;;7.60;;
17496;SDS011;62150;43.582;1.456;2024-01-11T16:14:14;16.33;;;7.67;;
17496;SDS011;62150;43.582;1.456;2024-01-11T16:16:42;15.97;;;7.97;;
17496;SDS011;62150;43.582;1.456;2024-01-11T16:19:10;15.53;;;7.80;;
17496;SDS011;62150;43.582;1.456;2024-01-11T16:21:39;18.03;;;8.07;;
17496;SDS011;62150;43.582;1.456;2024-01-11T16:24:08;16.30;;;7.77;;
17496;SDS011;62150;43.582;1.456;2024-01-11T16:26:35;15.70;;;7.87;;
17496;SDS011;62150;43.582;1.456;2024-01-11T16:29:03;15.90;;;8.03;;
17496;SDS011;62150;43.582;1.456;2024-01-11T16:31:30;14.90;;;7.17;;
17496;SDS011;62150;43.582;1.456;2024-01-11T16:33:58;15.73;;;7.37;;
17496;SDS011;62150;43.582;1.456;2024-01-11T16:36:25;14.33;;;7.13;;
17496;SDS011;62150;43.582;1.456;2024-01-11T16:38:54;15.37;;;7.63;;
17496;SDS011;62150;43.582;1.456;2024-01-11T16:41:22;15.97;;;8.17;;
17496;SDS011;62150;43.582;1.456;2024-01-11T16:43:50;14.73;;;7.40;;
17496;SDS011;62150;43.582;1.456;2024-01-11T16:46:17;17.03;;;8.53;;
17496;SDS011;62150;43.582;1.456;2024-01-11T16:48:45;18.00;;;8.63;;
17496;SDS011;62150;43.582;1.456;2024-01-11T16:51:13;16.23;;;7.93;;
17496;SDS011;62150;43.582;1.456;2024-01-11T16:53:40;17.53;;;8.53;;
17496;SDS011;62150;43.582;1.456;2024-01-11T16:56:10;17.30;;;8.80;;
17496;SDS011;62150;43.582;1.456;2024-01-11T16:58:37;16.73;;;8.60;;
17496;SDS011;62150;43.582;1.456;2024-01-11T17:01:06;16.33;;;8.83;;
17496;SDS011;62150;43.582;1.456;2024-01-11T17:03:34;16.13;;;7.67;;
17496;SDS011;62150;43.582;1.456;2024-01-11T17:06:02;15.70;;;8.03;;
17496;SDS011;62150;43.582;1.456;2024-01-11T17:08:30;16.43;;;8.17;;
17496;SDS011;62150;43.582;1.456;2024-01-11T17:10:58;15.47;;;8.33;;
17496;SDS011;62150;43.582;1.456;2024-01-11T17:13:27;16.10;;;8.53;;
17496;SDS011;62150;43.582;1.456;2024-01-11T17:15:54;16.70;;;8.83;;
17496;SDS011;62150;43.582;1.456;2024-01-11T17:18:22;17.20;;;8.80;;
17496;SDS011;62150;43.582;1.456;2024-01-11T17:20:50;18.53;;;9.00;;
17496;SDS011;62150;43.582;1.456;2024-01-11T17:23:18;17.40;;;8.50;;
17496;SDS011;62150;43.582;1.456;2024-01-11T17:25:45;17.17;;;9.03;;
17496;SDS011;62150;43.582;1.456;2024-01-11T17:28:13;16.67;;;8.77;;
17496;SDS011;62150;43.582;1.456;2024-01-11T17:30:42;18.60;;;9.23;;
17496;SDS011;62150;43.582;1.456;2024-01-11T17:33:09;15.40;;;8.43;;
17496;SDS011;62150;43.582;1.456;2024-01-11T17:35:37;16.93;;;9.10;;
17496;SDS011;62150;43.582;1.456;2024-01-11T17:38:04;17.17;;;9.20;;
17496;SDS011;62150;43.582;1.456;2024-01-11T17:40:32;16.80;;;8.23;;
17496;SDS011;62150;43.582;1.456;2024-01-11T17:43:00;17.07;;;9.07;;
17496;SDS011;62150;43.582;1.456;2024-01-11T17:45:28;17.50;;;8.67;;
17496;SDS011;62150;43.582;1.456;2024-01-11T17:47:57;18.30;;;9.17;;
17496;SDS011;62150;43.582;1.456;2024-01-11T17:50:25;17.97;;;8.70;;
17496;SDS011;62150;43.582;1.456;2024-01-11T17:52:52;17.77;;;9.10;;
17496;SDS011;62150;43.582;1.456;2024-01-11T17:55:20;15.57;;;8.17;;
17496;SDS011;62150;43.582;1.456;2024-01-11T17:57:47;17.23;;;8.87;;
17496;SDS011;62150;43.582;1.456;2024-01-11T18:00:15;16.63;;;8.23;;
17496;SDS011;62150;43.582;1.456;2024-01-11T18:02:43;18.53;;;9.70;;
17496;SDS011;62150;43.582;1.456;2024-01-11T18:05:12;16.63;;;8.63;;
17496;SDS011;62150;43.582;1.456;2024-01-11T18:07:40;19.13;;;9.03;;
17496;SDS011;62150;43.582;1.456;2024-01-11T18:10:07;17.43;;;8.73;;
17496;SDS011;62150;43.582;1.456;2024-01-11T18:12:35;16.53;;;8.67;;
17496;SDS011;62150;43.582;1.456;2024-01-11T18:15:03;17.53;;;9.20;;
17496;SDS011;62150;43.582;1.456;2024-01-11T18:17:31;15.70;;;8.27;;
17496;SDS011;62150;43.582;1.456;2024-01-11T18:20:00;16.93;;;8.47;;
17496;SDS011;62150;43.582;1.456;2024-01-11T18:22:31;17.67;;;9.37;;
17496;SDS011;62150;43.582;1.456;2024-01-11T18:24:59;18.27;;;9.17;;
17496;SDS011;62150;43.582;1.456;2024-01-11T18:27:26;16.37;;;8.67;;
17496;SDS011;62150;43.582;1.456;2024-01-11T18:29:54;17.57;;;8.60;;
17496;SDS011;62150;43.582;1.456;2024-01-11T18:32:22;16.57;;;8.87;;
17496;SDS011;62150;43.582;1.456;2024-01-11T18:34:49;24.37;;;11.73;;
17496;SDS011;62150;43.582;1.456;2024-01-11T18:37:17;18.33;;;11.23;;
17496;SDS011;62150;43.582;1.456;2024-01-11T18:39:46;21.73;;;12.63;;
17496;SDS011;62150;43.582;1.456;2024-01-11T18:42:14;17.93;;;10.20;;
17496;SDS011;62150;43.582;1.456;2024-01-11T18:44:49;17.47;;;9.60;;
17496;SDS011;62150;43.582;1.456;2024-01-11T18:47:16;20.60;;;11.67;;
17496;SDS011;62150;43.582;1.456;2024-01-11T18:49:44;18.50;;;9.60;;
17496;SDS011;62150;43.582;1.456;2024-01-11T18:52:12;20.23;;;11.17;;
17496;SDS011;62150;43.582;1.456;2024-01-11T18:54:39;17.97;;;10.07;;
17496;SDS011;62150;43.582;1.456;2024-01-11T18:57:08;16.80;;;9.23;;
17496;SDS011;62150;43.582;1.456;2024-01-11T18:59:39;17.33;;;10.03;;
17496;SDS011;62150;43.582;1.456;2024-01-11T19:02:06;15.97;;;9.20;;
17496;SDS011;62150;43.582;1.456;2024-01-11T19:04:34;16.13;;;8.70;;
17496;SDS011;62150;43.582;1.456;2024-01-11T19:07:02;16.50;;;9.07;;
17496;SDS011;62150;43.582;1.456;2024-01-11T19:09:29;16.77;;;9.43;;
17496;SDS011;62150;43.582;1.456;2024-01-11T19:11:57;19.23;;;10.57;;
17496;SDS011;62150;43.582;1.456;2024-01-11T19:14:27;20.87;;;11.57;;
17496;SDS011;62150;43.582;1.456;2024-01-11T19:16:54;17.93;;;9.57;;